Time;durP1;ratioP1;P1;durP2;ratioP2;P2;SDS_P1;SDS_P2;PMS_P1;PMS_P2;Temp;Humidity;BMP_temperature;BMP_pressure;BME280_temperature;BME280_humidity;BME280_pressure;Samples;Min_cycle;Max_cycle;Signal;HPM_P1;HPM_P2
2023/12/14 00:00:18;;;;;;;4.55;4.25;;;5.20;99.90;;;;;;5105502;28;20220;-78
2023/12/14 00:02:45;;;;;;;4.10;3.90;;;5.20;99.90;;;;;;5100812;27;21024;-77
2023/12/14 00:05:12;;;;;;;4.63;4.32;;;5.20;99.90;;;;;;5101659;28;20220;-77
2023/12/14 00:07:40;;;;;;;4.03;3.83;;;5.20;99.90;;;;;;5101647;28;20209;-80
2023/12/14 00:10:08;;;;;;;4.88;4.53;;;5.10;99.90;;;;;;5101014;28;20624;-78
2023/12/14 00:12:35;;;;;;;4.50;4.20;;;5.10;99.90;;;;;;5104158;28;20196;-78
2023/12/14 00:15:03;;;;;;;4.40;4.10;;;5.10;99.90;;;;;;5103120;28;20835;-77
2023/12/14 00:17:30;;;;;;;4.35;4.15;;;5.00;99.90;;;;;;5102352;28;20251;-78
2023/12/14 00:19:57;;;;;;;3.90;3.70;;;5.00;99.90;;;;;;5102890;28;20215;-78
2023/12/14 00:22:24;;;;;;;3.50;3.30;;;5.00;99.90;;;;;;5104349;27;20243;-78
2023/12/14 00:24:52;;;;;;;4.03;3.83;;;4.90;99.90;;;;;;5105570;27;20273;-78
2023/12/14 00:27:20;;;;;;;3.55;3.35;;;4.90;99.90;;;;;;5100746;27;20693;-78
2023/12/14 00:29:47;;;;;;;3.90;3.70;;;4.90;99.90;;;;;;5105627;28;20189;-78
2023/12/14 00:32:14;;;;;;;3.70;3.50;;;4.90;99.90;;;;;;5103616;28;20221;-79
2023/12/14 00:34:41;;;;;;;3.38;3.17;;;4.90;99.90;;;;;;5109864;28;20713;-78
2023/12/14 00:37:08;;;;;;;3.60;3.40;;;4.90;99.90;;;;;;5099200;28;20237;-78
2023/12/14 00:39:35;;;;;;;3.58;3.38;;;4.80;99.90;;;;;;5101842;28;20193;-78
2023/12/14 00:42:04;;;;;;;3.40;3.20;;;4.80;99.90;;;;;;5104388;28;20655;-78
2023/12/14 00:44:31;;;;;;;3.58;3.38;;;4.80;99.90;;;;;;5102293;28;20227;-78
2023/12/14 00:47:00;;;;;;;3.50;3.30;;;4.80;99.90;;;;;;5100546;28;20487;-78
2023/12/14 00:49:28;;;;;;;3.60;3.40;;;4.80;99.90;;;;;;5104242;27;20200;-78
2023/12/14 00:51:55;;;;;;;3.67;3.47;;;4.70;99.90;;;;;;5103516;28;20273;-77
2023/12/14 00:54:22;;;;;;;3.40;3.20;;;4.70;99.90;;;;;;5101063;28;20700;-78
2023/12/14 00:56:49;;;;;;;3.53;3.33;;;4.70;99.90;;;;;;5099921;28;20221;-78
2023/12/14 00:59:17;;;;;;;3.55;3.35;;;4.70;99.90;;;;;;5103932;28;20200;-78
2023/12/14 01:01:46;;;;;;;3.30;3.20;;;4.70;99.90;;;;;;5102485;28;20215;-78
2023/12/14 01:04:13;;;;;;;3.70;3.50;;;4.60;99.90;;;;;;5102700;27;20197;-79
2023/12/14 01:06:40;;;;;;;3.45;3.25;;;4.60;99.90;;;;;;5094664;28;20223;-78
2023/12/14 01:09:08;;;;;;;3.42;3.22;;;4.60;99.90;;;;;;5099148;28;20710;-78
2023/12/14 01:11:35;;;;;;;3.92;3.72;;;4.50;99.90;;;;;;5100870;27;20817;-78
2023/12/14 01:14:02;;;;;;;3.38;3.20;;;4.60;99.90;;;;;;5095547;28;20212;-77
2023/12/14 01:16:30;;;;;;;3.63;3.42;;;4.60;99.90;;;;;;5102133;28;20227;-79
2023/12/14 01:18:57;;;;;;;3.20;3.10;;;4.60;99.90;;;;;;5102329;28;20238;-78
2023/12/14 01:21:24;;;;;;;3.53;3.33;;;4.60;99.90;;;;;;5101567;27;20224;-78
2023/12/14 01:23:52;;;;;;;3.47;3.28;;;4.60;99.90;;;;;;5107073;28;20657;-77
2023/12/14 01:26:19;;;;;;;3.55;3.30;;;4.70;99.90;;;;;;5100795;28;20226;-78
2023/12/14 01:28:46;;;;;;;3.70;3.50;;;4.70;99.90;;;;;;5102038;27;20680;-79
2023/12/14 01:31:13;;;;;;;3.72;3.53;;;4.70;99.90;;;;;;5103045;27;20228;-78
2023/12/14 01:33:41;;;;;;;4.00;3.80;;;4.80;99.90;;;;;;5117103;27;20200;-78
2023/12/14 01:36:09;;;;;;;3.70;3.50;;;4.80;99.90;;;;;;5099031;28;20233;-78
2023/12/14 01:38:36;;;;;;;4.13;3.92;;;4.80;99.90;;;;;;5103457;27;20208;-79
2023/12/14 01:41:03;;;;;;;3.70;3.50;;;4.80;99.90;;;;;;5097341;28;20216;-77
2023/12/14 01:43:30;;;;;;;3.78;3.58;;;4.80;99.90;;;;;;5102327;27;20205;-78
2023/12/14 01:45:57;;;;;;;4.10;3.90;;;4.80;99.90;;;;;;5101753;28;20232;-78
2023/12/14 01:48:24;;;;;;;3.75;3.55;;;4.80;99.90;;;;;;5101216;28;20208;-78
2023/12/14 01:50:53;;;;;;;3.50;3.30;;;4.80;99.90;;;;;;5100780;27;20249;-78
2023/12/14 01:53:20;;;;;;;4.18;3.97;;;4.80;99.90;;;;;;5102531;27;20208;-78
2023/12/14 01:55:47;;;;;;;3.88;3.67;;;4.80;99.90;;;;;;5097702;28;20255;-77
2023/12/14 01:58:14;;;;;;;3.83;3.63;;;4.80;99.90;;;;;;5097524;27;20208;-80
2023/12/14 02:00:48;;;;;;;4.07;3.88;;;4.80;99.90;;;;;;5099555;28;20225;-77
2023/12/14 02:03:16;;;;;;;3.80;3.60;;;4.80;99.90;;;;;;5100334;28;20916;-78
2023/12/14 02:05:43;;;;;;;3.88;3.67;;;4.80;99.90;;;;;;5100354;28;20224;-78
2023/12/14 02:08:11;;;;;;;3.67;3.47;;;4.80;99.90;;;;;;5105156;27;20205;-79
2023/12/14 02:10:38;;;;;;;4.03;3.83;;;4.80;99.90;;;;;;5099357;28;20220;-78
2023/12/14 02:13:05;;;;;;;4.00;3.80;;;4.80;99.90;;;;;;5102781;27;20200;-79
2023/12/14 02:15:32;;;;;;;3.97;3.78;;;4.80;99.90;;;;;;5100651;27;20228;-77
2023/12/14 02:17:59;;;;;;;4.10;3.90;;;4.80;99.90;;;;;;5103211;28;20705;-78
2023/12/14 02:20:26;;;;;;;4.50;4.20;;;4.70;99.90;;;;;;5099240;28;20229;-78
2023/12/14 02:22:56;;;;;;;4.53;4.22;;;4.70;99.90;;;;;;5101439;28;20220;-78
2023/12/14 02:25:24;;;;;;;4.57;4.28;;;4.60;99.90;;;;;;5100214;28;20776;-78
2023/12/14 02:27:52;;;;;;;4.78;4.47;;;4.60;99.90;;;;;;5102517;28;20204;-78
2023/12/14 02:30:19;;;;;;;4.45;4.15;;;4.50;99.90;;;;;;5105229;27;20233;-78
2023/12/14 02:32:46;;;;;;;4.50;4.20;;;4.50;99.90;;;;;;5103350;28;20193;-79
2023/12/14 02:35:14;;;;;;;3.95;3.67;;;4.40;99.90;;;;;;5095883;27;20229;-78
2023/12/14 02:37:41;;;;;;;4.30;4.00;;;4.40;99.90;;;;;;5100495;27;20226;-78
2023/12/14 02:40:11;;;;;;;4.50;4.20;;;4.50;99.90;;;;;;5093942;28;20205;-77
2023/12/14 02:42:38;;;;;;;5.13;4.80;;;4.50;99.90;;;;;;5096624;28;20220;-78
2023/12/14 02:45:06;;;;;;;4.47;4.20;;;4.40;99.90;;;;;;5098550;28;20220;-78
2023/12/14 02:47:34;;;;;;;4.95;4.65;;;4.40;99.90;;;;;;5094462;28;20711;-79
2023/12/14 02:50:01;;;;;;;4.57;4.28;;;4.30;99.90;;;;;;5099280;28;20219;-78
2023/12/14 02:52:28;;;;;;;4.72;4.43;;;4.30;99.90;;;;;;5098306;28;20189;-78
2023/12/14 02:54:55;;;;;;;5.00;4.60;;;4.30;99.90;;;;;;5098824;28;20609;-78
2023/12/14 02:57:23;;;;;;;4.97;4.68;;;4.30;99.90;;;;;;5098111;28;20201;-78
2023/12/14 02:59:50;;;;;;;4.55;4.25;;;4.30;99.90;;;;;;5095871;28;20201;-77
2023/12/14 03:02:17;;;;;;;5.00;4.60;;;4.30;99.90;;;;;;5093116;28;20213;-76
2023/12/14 03:04:44;;;;;;;5.40;5.07;;;4.30;99.90;;;;;;5097840;28;20212;-79
2023/12/14 03:07:11;;;;;;;5.25;4.85;;;4.30;99.90;;;;;;5096881;27;20224;-78
2023/12/14 03:09:43;;;;;;;4.70;4.40;;;4.30;99.90;;;;;;5095503;28;20204;-78
2023/12/14 03:12:10;;;;;;;5.00;4.65;;;4.30;99.90;;;;;;5096360;28;20212;-78
2023/12/14 03:14:40;;;;;;;5.10;4.80;;;4.30;99.90;;;;;;5098400;28;20626;-78
2023/12/14 03:17:12;;;;;;;7.18;6.57;;;4.30;99.90;;;;;;5094661;28;20710;-77
2023/12/14 03:19:39;;;;;;;4.95;4.65;;;4.30;99.90;;;;;;5096725;28;20877;-78
2023/12/14 03:22:07;;;;;;;5.10;4.80;;;4.30;99.90;;;;;;5100594;28;21063;-78
2023/12/14 03:24:34;;;;;;;6.20;5.80;;;4.30;99.90;;;;;;5098909;28;20702;-78
2023/12/14 03:27:02;;;;;;;6.38;5.93;;;4.30;99.90;;;;;;5098990;27;20657;-77
2023/12/14 03:29:29;;;;;;;5.55;5.15;;;4.30;99.90;;;;;;5102455;28;20197;-78
2023/12/14 03:31:57;;;;;;;5.57;5.18;;;4.30;99.90;;;;;;5098124;28;20216;-78
2023/12/14 03:34:25;;;;;;;5.97;5.57;;;4.30;99.90;;;;;;5099195;28;20221;-78
2023/12/14 03:36:52;;;;;;;5.93;5.53;;;4.30;99.90;;;;;;5096476;28;20221;-79
2023/12/14 03:39:19;;;;;;;6.32;5.85;;;4.20;99.90;;;;;;5093447;28;20765;-78
2023/12/14 03:41:46;;;;;;;5.97;5.53;;;4.20;99.90;;;;;;5096601;28;20212;-78
2023/12/14 03:44:16;;;;;;;5.65;5.25;;;4.20;99.90;;;;;;5095560;28;20276;-78
2023/12/14 03:46:43;;;;;;;6.53;6.03;;;4.20;99.90;;;;;;5100014;28;20212;-79
2023/12/14 03:49:12;;;;;;;5.78;5.38;;;4.20;99.90;;;;;;5094913;28;20209;-79
2023/12/14 03:51:39;;;;;;;6.00;5.47;;;4.20;99.90;;;;;;5099157;28;20213;-78
2023/12/14 03:54:06;;;;;;;5.72;5.32;;;4.10;99.90;;;;;;5097473;28;20192;-77
2023/12/14 03:56:33;;;;;;;5.13;4.78;;;4.10;99.90;;;;;;5097856;28;20221;-78
2023/12/14 03:59:00;;;;;;;5.95;5.55;;;4.10;99.90;;;;;;5096165;28;20918;-78
2023/12/14 04:01:27;;;;;;;6.20;5.68;;;4.10;99.90;;;;;;5095303;28;20221;-79
2023/12/14 04:03:54;;;;;;;6.38;5.95;;;4.00;99.90;;;;;;5100110;28;20228;-78
2023/12/14 04:06:22;;;;;;;5.85;5.45;;;4.00;99.90;;;;;;5094807;28;20229;-78
2023/12/14 04:08:49;;;;;;;5.93;5.53;;;4.00;99.90;;;;;;5099039;28;20212;-78
2023/12/14 04:11:16;;;;;;;6.18;5.78;;;4.00;99.90;;;;;;5093581;28;20227;-77
2023/12/14 04:13:43;;;;;;;5.97;5.57;;;4.00;99.90;;;;;;5099727;28;20720;-78
2023/12/14 04:16:10;;;;;;;6.40;5.97;;;4.00;99.90;;;;;;5096068;28;20236;-78
2023/12/14 04:18:39;;;;;;;6.05;5.65;;;4.00;99.90;;;;;;5095622;28;20354;-78
2023/12/14 04:21:06;;;;;;;5.40;5.05;;;4.00;99.90;;;;;;5099674;28;20225;-79
2023/12/14 04:23:35;;;;;;;5.65;5.35;;;3.90;99.90;;;;;;5099772;28;20219;-77
2023/12/14 04:26:02;;;;;;;4.97;4.68;;;3.90;99.90;;;;;;5097827;28;20235;-77
2023/12/14 04:28:29;;;;;;;5.32;4.90;;;3.90;99.90;;;;;;5101315;28;20202;-79
2023/12/14 04:30:56;;;;;;;5.85;5.45;;;4.00;99.90;;;;;;5103153;28;21023;-78
2023/12/14 04:33:23;;;;;;;6.28;5.88;;;4.00;99.90;;;;;;5095120;28;20205;-78
2023/12/14 04:35:50;;;;;;;5.85;5.45;;;4.00;99.90;;;;;;5096523;28;20229;-78
2023/12/14 04:38:17;;;;;;;6.70;6.20;;;4.00;99.90;;;;;;5096905;28;20204;-77
2023/12/14 04:40:49;;;;;;;6.47;5.97;;;4.00;99.90;;;;;;5097163;27;20213;-79
2023/12/14 04:43:16;;;;;;;5.68;5.28;;;4.00;99.90;;;;;;5101742;27;20213;-78
2023/12/14 04:45:44;;;;;;;5.70;5.30;;;3.90;99.90;;;;;;5099650;28;20255;-79
2023/12/14 04:48:11;;;;;;;5.82;5.43;;;3.90;99.90;;;;;;5102845;28;20548;-78
2023/12/14 04:50:38;;;;;;;5.75;5.35;;;3.90;99.90;;;;;;5098836;28;20258;-78
2023/12/14 04:53:05;;;;;;;5.50;5.20;;;3.90;99.90;;;;;;5103725;28;20571;-77
2023/12/14 04:55:32;;;;;;;5.30;5.00;;;3.80;99.90;;;;;;5101244;28;20244;-78
2023/12/14 04:58:01;;;;;;;6.03;5.60;;;3.80;99.90;;;;;;5103378;27;20196;-78
2023/12/14 05:00:28;;;;;;;6.10;5.70;;;3.80;99.90;;;;;;5098620;27;20212;-76
2023/12/14 05:02:55;;;;;;;5.90;5.40;;;3.80;99.90;;;;;;5098007;28;20216;-79
2023/12/14 05:05:22;;;;;;;5.78;5.38;;;3.80;99.90;;;;;;5099201;28;20229;-78
2023/12/14 05:07:49;;;;;;;5.93;5.53;;;3.70;99.90;;;;;;5098903;28;20201;-78
2023/12/14 05:10:16;;;;;;;5.53;5.13;;;3.70;99.90;;;;;;5098146;28;20725;-77
2023/12/14 05:12:43;;;;;;;6.28;5.85;;;3.70;99.90;;;;;;5100733;27;20318;-78
2023/12/14 05:15:12;;;;;;;6.10;5.68;;;3.70;99.90;;;;;;5099603;28;20217;-78
2023/12/14 05:17:40;;;;;;;5.20;4.80;;;3.70;99.90;;;;;;5100922;27;20201;-78
2023/12/14 05:20:09;;;;;;;5.32;4.97;;;3.70;99.90;;;;;;5103235;28;20580;-79
2023/12/14 05:22:36;;;;;;;5.47;5.10;;;3.70;99.90;;;;;;5103465;28;20224;-78
2023/12/14 05:25:04;;;;;;;5.47;5.03;;;3.70;99.90;;;;;;5101535;28;21065;-77
2023/12/14 05:27:31;;;;;;;4.95;4.65;;;3.70;99.90;;;;;;5101158;28;20205;-81
2023/12/14 05:29:58;;;;;;;5.25;4.95;;;3.60;99.90;;;;;;5100611;28;20208;-79
2023/12/14 05:32:27;;;;;;;5.53;5.13;;;3.60;99.90;;;;;;5104978;27;20225;-77
2023/12/14 05:34:54;;;;;;;5.45;5.13;;;3.60;99.90;;;;;;5097368;28;20213;-78
2023/12/14 05:37:21;;;;;;;5.30;4.97;;;3.60;99.90;;;;;;5097851;28;20629;-77
2023/12/14 05:39:48;;;;;;;5.07;4.78;;;3.60;99.90;;;;;;5098281;28;20780;-77
2023/12/14 05:42:17;;;;;;;4.82;4.53;;;3.60;99.90;;;;;;5102728;28;20220;-78
2023/12/14 05:44:45;;;;;;;5.20;4.90;;;3.60;99.90;;;;;;5097659;28;20220;-77
2023/12/14 05:47:12;;;;;;;4.90;4.50;;;3.60;99.90;;;;;;5100258;28;20258;-77
2023/12/14 05:49:43;;;;;;;5.20;4.90;;;3.50;99.90;;;;;;5099549;28;20209;-77
2023/12/14 05:52:10;;;;;;;5.03;4.72;;;3.50;99.90;;;;;;5096742;28;20236;-79
2023/12/14 05:54:37;;;;;;;4.93;4.63;;;3.50;99.90;;;;;;5101086;27;20228;-78
2023/12/14 05:57:05;;;;;;;5.00;4.70;;;3.50;99.90;;;;;;5101735;28;20244;-77
2023/12/14 05:59:32;;;;;;;4.55;4.25;;;3.60;99.90;;;;;;5099942;28;20197;-77
2023/12/14 06:01:59;;;;;;;4.15;3.95;;;3.50;99.90;;;;;;5101034;27;20766;-78
2023/12/14 06:04:28;;;;;;;4.63;4.32;;;3.50;99.90;;;;;;5100076;27;20225;-78
2023/12/14 06:06:56;;;;;;;4.45;4.15;;;3.50;99.90;;;;;;5100521;27;20618;-77
2023/12/14 06:09:29;;;;;;;5.38;5.07;;;3.50;99.90;;;;;;5097287;28;20225;-77
2023/12/14 06:11:56;;;;;;;5.78;5.38;;;3.50;99.90;;;;;;5093882;28;20236;-78
2023/12/14 06:14:23;;;;;;;4.97;4.68;;;3.50;99.90;;;;;;5097266;28;20194;-78
2023/12/14 06:16:50;;;;;;;5.30;4.93;;;3.50;99.90;;;;;;5101312;28;20228;-77
2023/12/14 06:19:17;;;;;;;5.70;5.30;;;3.50;99.90;;;;;;5097074;28;20212;-78
2023/12/14 06:21:44;;;;;;;4.95;4.65;;;3.50;99.90;;;;;;5100945;28;20220;-78
2023/12/14 06:24:13;;;;;;;5.28;4.90;;;3.50;99.90;;;;;;5097439;28;20221;-77
2023/12/14 06:26:42;;;;;;;4.63;4.32;;;3.50;99.90;;;;;;5096810;28;20224;-78
2023/12/14 06:29:10;;;;;;;5.30;4.90;;;3.60;99.90;;;;;;5103520;28;20204;-77
2023/12/14 06:31:37;;;;;;;4.85;4.55;;;3.60;99.90;;;;;;5100181;27;20232;-78
2023/12/14 06:34:04;;;;;;;5.10;4.80;;;3.50;99.90;;;;;;5099524;28;20209;-78
2023/12/14 06:36:31;;;;;;;4.38;4.07;;;3.50;99.90;;;;;;5102609;28;20224;-78
2023/12/14 06:38:58;;;;;;;4.63;4.32;;;3.50;99.90;;;;;;5106627;27;20201;-77
2023/12/14 06:41:28;;;;;;;3.95;3.75;;;3.50;99.90;;;;;;5100435;28;20236;-78
2023/12/14 06:43:55;;;;;;;4.10;3.80;;;3.50;99.90;;;;;;5102723;28;20771;-78
2023/12/14 06:46:22;;;;;;;4.38;4.18;;;3.50;99.90;;;;;;5103853;28;20240;-78
2023/12/14 06:48:50;;;;;;;4.10;3.90;;;3.50;99.90;;;;;;5098435;28;20208;-78
2023/12/14 06:51:17;;;;;;;4.22;4.03;;;3.50;99.90;;;;;;5099772;28;20341;-79
2023/12/14 06:53:45;;;;;;;4.82;4.53;;;3.50;99.90;;;;;;5100538;28;20190;-78
2023/12/14 06:56:13;;;;;;;4.80;4.50;;;3.50;99.90;;;;;;5098966;28;20227;-77
2023/12/14 06:58:42;;;;;;;4.78;4.47;;;3.50;99.90;;;;;;5095197;28;20204;-77
2023/12/14 07:01:12;;;;;;;5.25;4.95;;;3.60;99.90;;;;;;5099784;27;20235;-78
2023/12/14 07:03:41;;;;;;;4.63;4.32;;;3.60;99.90;;;;;;5099247;28;20618;-78
2023/12/14 07:06:09;;;;;;;5.63;5.30;;;3.60;99.90;;;;;;5099950;28;20228;-78
2023/12/14 07:08:36;;;;;;;5.70;5.30;;;3.70;99.90;;;;;;5096121;28;20730;-80
2023/12/14 07:11:03;;;;;;;5.25;4.90;;;3.80;99.90;;;;;;5097317;28;20220;-78
2023/12/14 07:13:30;;;;;;;4.68;4.38;;;3.80;99.90;;;;;;5097801;28;20203;-78
2023/12/14 07:15:58;;;;;;;4.90;4.60;;;3.90;99.90;;;;;;5102939;27;20236;-79
2023/12/14 07:18:25;;;;;;;5.38;4.97;;;4.00;99.90;;;;;;5099519;28;20213;-78
2023/12/14 07:20:52;;;;;;;4.88;4.57;;;4.10;99.90;;;;;;5103638;27;20600;-77
2023/12/14 07:23:19;;;;;;;6.00;5.57;;;4.10;99.90;;;;;;5101062;28;20299;-78
2023/12/14 07:25:46;;;;;;;5.28;4.97;;;4.20;99.90;;;;;;5104501;28;20217;-79
2023/12/14 07:28:13;;;;;;;5.75;5.35;;;4.30;99.90;;;;;;5104361;28;20695;-78
2023/12/14 07:30:40;;;;;;;5.68;5.28;;;4.50;99.90;;;;;;5102672;27;20303;-78
2023/12/14 07:33:09;;;;;;;5.40;5.00;;;4.60;99.90;;;;;;5103010;28;20200;-77
2023/12/14 07:35:36;;;;;;;4.95;4.65;;;4.60;99.90;;;;;;5103701;28;20227;-78
2023/12/14 07:38:03;;;;;;;5.30;4.90;;;4.50;99.90;;;;;;5104711;28;20204;-76
2023/12/14 07:40:30;;;;;;;5.97;5.57;;;4.50;99.90;;;;;;5103889;28;20220;-78
2023/12/14 07:42:57;;;;;;;5.03;4.72;;;4.50;99.90;;;;;;5101724;28;20670;-77
2023/12/14 07:45:24;;;;;;;6.00;5.60;;;4.40;99.90;;;;;;5102313;28;20221;-78
2023/12/14 07:47:51;;;;;;;5.93;5.35;;;4.40;99.90;;;;;;5101025;28;20204;-78
2023/12/14 07:50:20;;;;;;;5.80;5.40;;;4.50;99.90;;;;;;5106914;28;20220;-77
2023/12/14 07:52:47;;;;;;;6.10;5.70;;;4.50;99.90;;;;;;5102780;28;20221;-78
2023/12/14 07:55:14;;;;;;;6.00;5.43;;;4.50;99.90;;;;;;5101405;28;20232;-77
2023/12/14 07:57:41;;;;;;;5.63;5.22;;;4.50;99.90;;;;;;5100491;28;20663;-77
2023/12/14 08:00:10;;;;;;;5.93;5.45;;;4.50;99.90;;;;;;5101456;28;20229;-79
2023/12/14 08:02:37;;;;;;;6.70;6.13;;;4.50;99.90;;;;;;5102065;28;20196;-77
2023/12/14 08:05:04;;;;;;;6.60;6.10;;;4.40;99.90;;;;;;5100550;28;20294;-77
2023/12/14 08:07:33;;;;;;;7.05;6.45;;;4.30;99.90;;;;;;5103315;28;20217;-77
2023/12/14 08:10:01;;;;;;;6.32;5.75;;;4.30;99.90;;;;;;5102258;28;20209;-77
2023/12/14 08:12:28;;;;;;;6.03;5.63;;;4.20;99.90;;;;;;5098944;28;20205;-77
2023/12/14 08:14:55;;;;;;;6.78;6.18;;;4.40;99.90;;;;;;5096937;27;20217;-77
2023/12/14 08:17:22;;;;;;;7.70;7.10;;;5.00;99.90;;;;;;5103016;28;20197;-77
2023/12/14 08:19:49;;;;;;;6.82;6.32;;;5.70;99.90;;;;;;5107969;28;20651;-78
2023/12/14 08:22:16;;;;;;;7.00;6.47;;;6.50;99.90;;;;;;5105584;28;20235;-78
2023/12/14 08:24:44;;;;;;;6.65;6.13;;;7.30;99.90;;;;;;5102375;27;20223;-79
2023/12/14 08:27:11;;;;;;;6.03;5.63;;;8.10;99.90;;;;;;5102567;28;20225;-77
2023/12/14 08:29:38;;;;;;;6.65;6.18;;;8.70;99.90;;;;;;5105235;28;20197;-78
2023/12/14 08:32:06;;;;;;;8.20;7.55;;;9.30;99.90;;;;;;5105931;28;20224;-78
2023/12/14 08:34:33;;;;;;;7.72;7.13;;;9.80;99.90;;;;;;5108770;28;20212;-78
2023/12/14 08:37:02;;;;;;;6.30;5.80;;;10.30;99.90;;;;;;5103052;28;20220;-77
2023/12/14 08:39:29;;;;;;;5.82;5.43;;;10.40;99.90;;;;;;5101743;28;20244;-78
2023/12/14 08:41:58;;;;;;;6.72;6.05;;;10.40;99.90;;;;;;5107543;28;20220;-77
2023/12/14 08:44:25;;;;;;;4.93;4.53;;;10.50;99.90;;;;;;5108707;28;20224;-78
2023/12/14 08:46:52;;;;;;;5.63;5.22;;;10.70;99.90;;;;;;5108680;27;20217;-78
2023/12/14 08:49:19;;;;;;;4.72;4.40;;;11.10;99.90;;;;;;5112310;28;20207;-78
2023/12/14 08:51:46;;;;;;;5.22;4.82;;;11.40;99.90;;;;;;5106301;28;20244;-78
2023/12/14 08:54:13;;;;;;;5.20;4.80;;;11.90;99.90;;;;;;5109853;27;20198;-78
2023/12/14 08:56:40;;;;;;;4.22;3.92;;;12.30;99.90;;;;;;5111840;27;20216;-78
2023/12/14 08:59:09;;;;;;;5.25;4.65;;;12.80;99.90;;;;;;5110409;28;20284;-77
2023/12/14 09:01:36;;;;;;;4.85;4.45;;;13.30;99.90;;;;;;5102171;28;20221;-78
2023/12/14 09:04:03;;;;;;;4.88;4.47;;;13.50;99.90;;;;;;5105810;28;20690;-78
2023/12/14 09:06:30;;;;;;;4.18;3.88;;;13.70;99.90;;;;;;5104822;28;20217;-78
2023/12/14 09:08:57;;;;;;;4.45;4.15;;;14.40;99.90;;;;;;5107623;28;20196;-78
2023/12/14 09:11:25;;;;;;;4.18;3.88;;;15.10;99.90;;;;;;5110733;27;20234;-78
2023/12/14 09:13:52;;;;;;;4.00;3.70;;;16.40;99.90;;;;;;5110412;28;20196;-78
2023/12/14 09:16:20;;;;;;;4.95;4.55;;;17.60;99.90;;;;;;5107056;28;20220;-78
2023/12/14 09:18:48;;;;;;;4.85;4.45;;;18.80;99.90;;;;;;5103558;28;20201;-77
2023/12/14 09:21:15;;;;;;;4.57;4.20;;;19.30;99.90;;;;;;5106840;28;20641;-78
2023/12/14 09:23:42;;;;;;;3.90;3.47;;;19.50;99.90;;;;;;5105678;28;20660;-78
2023/12/14 09:26:10;;;;;;;4.60;3.65;;;19.90;99.90;;;;;;5107608;27;20221;-77
2023/12/14 09:28:37;;;;;;;3.30;3.10;;;20.50;99.90;;;;;;5109588;27;20261;-77
2023/12/14 09:31:05;;;;;;;3.20;3.00;;;21.20;99.90;;;;;;5105950;27;20343;-79
2023/12/14 09:33:33;;;;;;;3.55;3.15;;;21.80;99.90;;;;;;5111279;27;20193;-78
2023/12/14 09:36:00;;;;;;;3.83;3.53;;;22.30;99.90;;;;;;5112252;28;20216;-78
2023/12/14 09:38:28;;;;;;;3.50;3.30;;;22.80;99.90;;;;;;5109095;28;20201;-77
2023/12/14 09:40:55;;;;;;;3.72;3.42;;;23.10;99.90;;;;;;5106085;28;20243;-77
2023/12/14 09:43:23;;;;;;;4.53;4.22;;;23.20;99.90;;;;;;5106327;28;20202;-77
2023/12/14 09:45:51;;;;;;;4.57;3.40;;;23.00;99.90;;;;;;5105924;28;23155;-77
2023/12/14 09:48:18;;;;;;;3.72;3.42;;;22.90;99.90;;;;;;5106972;28;20772;-78
2023/12/14 09:50:47;;;;;;;3.70;3.40;;;22.50;99.90;;;;;;5104548;27;20228;-77
2023/12/14 09:53:14;;;;;;;4.75;3.60;;;21.90;99.90;;;;;;5104717;28;20667;-76
2023/12/14 09:55:41;;;;;;;3.65;3.40;;;21.00;99.90;;;;;;5106890;28;20221;-77
2023/12/14 09:58:10;;;;;;;3.70;3.30;;;20.10;99.90;;;;;;5104077;28;20208;-76
2023/12/14 10:00:40;;;;;;;3.75;3.55;;;18.80;99.90;;;;;;5100160;27;20221;-77
2023/12/14 10:03:21;;;;;;;4.22;3.92;;;17.80;99.90;;;;;;5100744;28;20284;-77
2023/12/14 10:05:49;;;;;;;4.38;3.97;;;16.50;99.90;;;;;;5100063;28;20229;-77
2023/12/14 10:08:17;;;;;;;4.72;4.38;;;15.60;99.90;;;;;;5105250;28;20205;-77
2023/12/14 10:10:44;;;;;;;4.18;3.88;;;15.10;99.90;;;;;;5104950;28;20835;-77
2023/12/14 10:13:12;;;;;;;4.32;4.03;;;14.70;99.90;;;;;;5103169;28;20201;-76
2023/12/14 10:15:43;;;;;;;4.53;4.13;;;14.20;99.90;;;;;;5110369;28;20247;-76
2023/12/14 10:18:10;;;;;;;4.53;4.13;;;14.10;99.90;;;;;;5110801;28;20245;-77
2023/12/14 10:20:38;;;;;;;4.85;4.32;;;14.10;99.90;;;;;;5105778;27;20274;-78
2023/12/14 10:23:08;;;;;;;3.97;3.67;;;13.80;99.90;;;;;;5103659;28;20202;-79
2023/12/14 10:25:37;;;;;;;4.43;4.03;;;13.70;99.90;;;;;;5102666;27;20831;-76
2023/12/14 10:28:05;;;;;;;4.15;3.80;;;13.70;99.90;;;;;;5104331;28;20229;-77
2023/12/14 10:30:32;;;;;;;3.33;3.05;;;13.70;99.90;;;;;;5100909;27;20289;-78
2023/12/14 10:32:59;;;;;;;4.10;3.80;;;13.70;99.90;;;;;;5099689;27;20201;-79
2023/12/14 10:35:27;;;;;;;4.75;4.40;;;13.70;99.90;;;;;;5102252;28;20301;-77
2023/12/14 10:37:54;;;;;;;4.38;3.97;;;13.70;99.90;;;;;;5098614;28;20259;-82
2023/12/14 10:40:25;;;;;;;3.83;3.50;;;13.50;99.90;;;;;;5101347;28;20213;-77
2023/12/14 10:42:53;;;;;;;4.13;3.83;;;13.50;99.90;;;;;;5104997;27;20201;-78
2023/12/14 10:45:22;;;;;;;3.95;3.65;;;13.60;99.90;;;;;;5100287;28;20232;-77
2023/12/14 10:47:49;;;;;;;3.67;3.38;;;13.80;99.90;;;;;;5104280;28;20204;-76
2023/12/14 10:50:18;;;;;;;3.35;3.10;;;13.80;99.90;;;;;;5109072;28;20229;-77
2023/12/14 10:52:45;;;;;;;3.38;3.17;;;13.70;99.90;;;;;;5102494;28;20574;-76
2023/12/14 10:55:19;;;;;;;4.53;3.20;;;13.50;99.90;;;;;;5108361;27;20252;-78
2023/12/14 10:57:48;;;;;;;3.95;3.65;;;13.20;99.90;;;;;;5102403;28;20659;-78
2023/12/14 11:00:18;;;;;;;3.58;3.28;;;12.80;99.90;;;;;;5098869;27;20216;-77
2023/12/14 11:02:47;;;;;;;3.47;3.22;;;12.70;99.90;;;;;;5096331;28;20202;-77
2023/12/14 11:05:19;;;;;;;3.72;3.42;;;12.70;99.90;;;;;;5101510;28;20231;-77
2023/12/14 11:07:48;;;;;;;3.50;3.30;;;12.90;99.90;;;;;;5103743;28;20204;-77
2023/12/14 11:10:15;;;;;;;3.67;3.40;;;13.20;99.90;;;;;;5101559;28;20213;-77
2023/12/14 11:12:58;;;;;;;4.40;3.92;;;13.30;99.90;;;;;;5104418;28;20208;-77
2023/12/14 11:15:25;;;;;;;4.32;3.92;;;13.30;99.90;;;;;;5104673;27;20252;-78
2023/12/14 11:18:24;;;;;;;3.80;3.50;;;13.10;99.90;;;;;;5108208;28;20224;-78
2023/12/14 11:20:54;;;;;;;3.58;3.38;;;13.10;99.90;;;;;;5105202;28;20221;-77
2023/12/14 11:23:34;;;;;;;3.95;3.65;;;13.30;99.90;;;;;;5108260;27;20200;-77
2023/12/14 11:26:04;;;;;;;3.78;3.47;;;13.30;99.90;;;;;;5102296;28;20225;-77
2023/12/14 11:28:34;;;;;;;3.75;3.55;;;13.50;99.90;;;;;;5102576;28;20604;-77
2023/12/14 11:31:06;;;;;;;3.67;3.38;;;13.50;99.90;;;;;;5106138;27;20593;-77
2023/12/14 11:33:33;;;;;;;3.92;3.63;;;13.40;99.90;;;;;;5108918;28;20239;-81
2023/12/14 11:36:03;;;;;;;4.07;3.78;;;13.40;99.90;;;;;;5105278;28;20713;-77
2023/12/14 11:38:31;;;;;;;3.92;3.63;;;13.50;99.90;;;;;;5111443;27;20278;-78
2023/12/14 11:40:59;;;;;;;3.80;3.50;;;13.60;99.90;;;;;;5106379;27;20212;-77
2023/12/14 11:43:29;;;;;;;3.83;3.53;;;13.70;99.90;;;;;;5108017;28;20207;-77
2023/12/14 11:45:58;;;;;;;3.97;3.67;;;13.70;99.90;;;;;;5102922;28;20327;-78
2023/12/14 11:48:25;;;;;;;4.05;3.75;;;13.80;99.90;;;;;;5101418;28;20197;-76
2023/12/14 11:50:53;;;;;;;3.80;3.50;;;13.80;99.90;;;;;;5104630;28;20222;-76
2023/12/14 11:53:20;;;;;;;3.55;3.25;;;13.90;99.90;;;;;;5105515;28;20215;-76
2023/12/14 11:55:47;;;;;;;4.10;3.80;;;13.80;99.90;;;;;;5104047;28;20224;-77
2023/12/14 11:58:16;;;;;;;4.13;3.83;;;13.60;99.90;;;;;;5101460;28;20204;-77
2023/12/14 12:00:46;;;;;;;3.55;3.35;;;13.40;99.90;;;;;;5105470;28;20591;-78
2023/12/14 12:03:17;;;;;;;3.85;3.55;;;13.30;99.90;;;;;;5110842;28;20205;-77
2023/12/14 12:05:46;;;;;;;3.53;3.25;;;13.20;99.90;;;;;;5105447;28;20221;-78
2023/12/14 12:08:14;;;;;;;8.40;4.88;;;13.10;99.90;;;;;;5100799;28;20739;-77
2023/12/14 12:10:44;;;;;;;7.53;4.95;;;13.10;99.90;;;;;;5099481;27;20583;-78
2023/12/14 12:13:14;;;;;;;4.18;3.83;;;13.50;99.90;;;;;;5089138;28;20224;-76
2023/12/14 12:15:41;;;;;;;4.28;3.50;;;13.80;99.90;;;;;;5089918;28;20692;-77
2023/12/14 12:18:12;;;;;;;3.30;3.10;;;13.80;99.90;;;;;;5092517;28;20196;-76
2023/12/14 12:20:41;;;;;;;4.45;2.95;;;13.70;99.90;;;;;;5099640;28;20227;-77
2023/12/14 12:23:08;;;;;;;2.80;2.60;;;13.80;99.90;;;;;;5100764;28;20595;-77
2023/12/14 12:25:36;;;;;;;3.10;2.90;;;14.20;99.90;;;;;;5099437;27;20219;-77
2023/12/14 12:28:04;;;;;;;3.17;2.97;;;14.20;99.90;;;;;;5104049;28;20209;-78
2023/12/14 12:30:31;;;;;;;3.15;2.88;;;14.10;99.90;;;;;;5106377;28;20213;-78
2023/12/14 12:32:58;;;;;;;4.90;2.78;;;13.90;99.90;;;;;;5106001;27;20204;-78
2023/12/14 12:35:26;;;;;;;3.10;2.90;;;13.90;99.90;;;;;;5104108;28;20217;-78
2023/12/14 12:37:54;;;;;;;2.75;2.55;;;13.90;99.90;;;;;;5093990;28;20225;-76
2023/12/14 12:40:22;;;;;;;2.85;2.65;;;14.00;99.90;;;;;;5090308;28;20983;-78
2023/12/14 12:42:49;;;;;;;2.90;2.70;;;14.10;99.90;;;;;;5093826;28;20205;-77
2023/12/14 12:45:17;;;;;;;2.97;2.78;;;14.10;99.90;;;;;;5097016;28;20233;-76
2023/12/14 12:47:45;;;;;;;3.10;2.90;;;13.80;99.90;;;;;;5096431;28;20478;-78
2023/12/14 12:50:12;;;;;;;3.22;2.92;;;13.50;99.90;;;;;;5093391;28;20311;-76
2023/12/14 12:52:40;;;;;;;3.58;3.30;;;13.20;99.90;;;;;;5090182;28;20573;-78
2023/12/14 12:55:10;;;;;;;3.72;3.38;;;13.10;99.90;;;;;;5094307;28;20220;-77